ASN logo
ASN Wikibase Occurrence # 263435
Last updated: 28 November 2021
This information is added by users of ASN. Neither ASN nor the Flight Safety Foundation are responsible for the completeness or correctness of this information. If you feel this information is incomplete or incorrect, you can submit corrected information.

Date:30-MAY-2021
Time:13:31
Type:Silhouette image of generic C82R model; specific model in this crash may look slightly different
Cessna R182 Skylane RG
Owner/operator:Skyking Aviation Services LLC
Registration: N757ZZ
MSN: R18201278
Fatalities:Fatalities: 0 / Occupants: 2
Other fatalities:0
Aircraft damage: Substantial
Location:Minden-Tahoe Airport (MEV/KMEV), Minden, NV -   United States of America
Phase: Landing
Nature:Training
Departure airport:Minden-Douglas County Airport, NV (MEV/KMEV)
Destination airport:Minden-Douglas County Airport, NV (MEV/KMEV)
Narrative:
The aircraft sustained substantial damage subsequent to the noseover upon landing runway 34 at Minden-Tahoe Airport (MEV/KMEV), Minden, Nevada.
The two occupants onboard the airplane were not injured.

METAR KMEV 302035Z AUTO VRB05G11KT 10SM CLR 28/M07 A3008 [4 minutes after the incident]
METAR KMEV 302015Z AUTO 22007G13KT 10SM CLR 27/M05 A3009 [16 minutes before the incident]

Sources:

https://www.recordcourier.com/news/2021/may/30/occupants-small-plane-walk-away-minden-crash/
https://www.carsonnow.org/reader-content/05/30/2021/plane-upside-down-minden-airport
https://www.ktvn.com/story/43995860/single-engine-plane-flips-over-at-minden-tahoe-airport
https://registry.faa.gov/aircraftinquiry/Search/NNumberResult?nNumberTxt=757ZZ
https://flightaware.com/live/flight/N757ZZ/history/20210530/2023Z/KMEV/KMEV

https://cdn.jetphotos.com/full/5/45843_1597465148.jpg (photo)


Revision history:

Date/timeContributorUpdates
31-May-2021 02:03 Geno Added
31-May-2021 04:05 RobertMB Updated [Time, Total occupants, Source, Narrative]
31-May-2021 16:30 aaronwk Updated [Time, Narrative]

Corrections or additions? ... Edit this accident description